createdAt,value
2022-12-31T00:00:32.073Z,99942.06
2022-12-31T00:03:00.133Z,99962.13
2022-12-31T00:05:31.578Z,99962.81
2022-12-31T00:08:00.004Z,99960.06
2022-12-31T00:10:27.750Z,99953.88
2022-12-31T00:12:55.658Z,99957.78
2022-12-31T00:15:23.414Z,99954.28
2022-12-31T00:17:51.334Z,99951.84
2022-12-31T00:20:19.341Z,99949.09
2022-12-31T00:22:48.835Z,99956.81
2022-12-31T00:25:16.655Z,99954.66
2022-12-31T00:27:44.415Z,99954.59
2022-12-31T00:30:13.347Z,99957.00
2022-12-31T00:32:41.458Z,99957.78
2022-12-31T00:35:10.001Z,99963.66
2022-12-31T00:37:37.691Z,99964.28
2022-12-31T00:40:08.265Z,99955.44
2022-12-31T00:42:36.486Z,99958.97
2022-12-31T00:45:06.128Z,99952.69
2022-12-31T00:47:33.901Z,99962.28
2022-12-31T00:50:01.619Z,99957.03
2022-12-31T00:52:29.330Z,99953.53
2022-12-31T00:54:57.784Z,99947.06
2022-12-31T00:57:26.882Z,99949.81
2022-12-31T00:59:54.598Z,99950.53
2022-12-31T01:02:22.502Z,99942.88
2022-12-31T01:04:50.406Z,99947.28
2022-12-31T01:07:18.159Z,99943.50
2022-12-31T01:09:46.018Z,99946.16
2022-12-31T01:12:13.757Z,99942.41
2022-12-31T01:14:42.974Z,99947.63
2022-12-31T01:17:10.682Z,99960.53
2022-12-31T01:19:38.450Z,99956.97
2022-12-31T01:22:06.179Z,99953.34
2022-12-31T01:24:33.911Z,99954.06
2022-12-31T01:27:01.649Z,99958.59
2022-12-31T01:29:29.637Z,99956.09
2022-12-31T01:31:58.768Z,99962.91
2022-12-31T01:34:26.608Z,99959.94
2022-12-31T01:36:54.358Z,99967.00
2022-12-31T01:39:22.102Z,99960.69
2022-12-31T01:41:50.921Z,99964.31
2022-12-31T01:44:51.512Z,99955.69
2022-12-31T01:47:28.853Z,99956.94
2022-12-31T01:50:02.634Z,99964.56
2022-12-31T01:52:33.732Z,99957.53
2022-12-31T01:55:06.930Z,99969.38
2022-12-31T01:57:35.604Z,99965.44
2022-12-31T02:00:04.305Z,99979.44
2022-12-31T02:02:34.689Z,99981.00
2022-12-31T02:05:06.774Z,99988.56
2022-12-31T02:07:34.592Z,99980.03
2022-12-31T02:10:02.847Z,99987.56
2022-12-31T02:12:30.606Z,99982.38
2022-12-31T02:14:58.367Z,99990.31
2022-12-31T02:17:33.609Z,99998.16
2022-12-31T02:20:45.747Z,99988.38
2022-12-31T02:24:01.284Z,99983.94
2022-12-31T02:26:50.482Z,99976.91
2022-12-31T02:29:53.856Z,99987.34
2022-12-31T02:32:30.322Z,99972.53
2022-12-31T02:35:04.637Z,99984.28
2022-12-31T02:37:34.884Z,99980.44
2022-12-31T02:40:03.423Z,99998.91
2022-12-31T02:42:31.191Z,99994.22
2022-12-31T02:44:58.972Z,99996.16
2022-12-31T02:47:44.208Z,100008.47
2022-12-31T02:50:27.736Z,100002.78
2022-12-31T02:53:06.781Z,100011.75
2022-12-31T02:55:42.968Z,99995.44
2022-12-31T02:58:17.843Z,99997.78
2022-12-31T03:01:07.548Z,99998.38
2022-12-31T03:03:38.715Z,99999.31
2022-12-31T03:06:08.959Z,100012.47
2022-12-31T03:08:57.193Z,99993.94
2022-12-31T03:11:38.992Z,100014.69
2022-12-31T03:14:06.818Z,100013.13
2022-12-31T03:16:34.874Z,100003.00
2022-12-31T03:19:22.038Z,100009.69
2022-12-31T03:22:07.136Z,100012.66
2022-12-31T03:24:52.279Z,100027.47
2022-12-31T03:27:19.982Z,100029.38
2022-12-31T03:29:47.744Z,100016.06
2022-12-31T03:32:15.502Z,100020.66
2022-12-31T03:34:44.632Z,100018.03
2022-12-31T03:37:12.466Z,100015.72
2022-12-31T03:39:40.201Z,100016.88
2022-12-31T03:42:07.901Z,100030.03
2022-12-31T03:44:35.732Z,100010.75
2022-12-31T03:47:03.690Z,100024.34
2022-12-31T03:49:31.408Z,100024.38
2022-12-31T03:52:02.956Z,100022.47
2022-12-31T03:54:30.697Z,100029.78
2022-12-31T03:57:00.405Z,100043.19
2022-12-31T03:59:28.244Z,100037.34
2022-12-31T04:01:56.163Z,100017.19
2022-12-31T04:04:23.972Z,100027.44
2022-12-31T04:06:51.659Z,100024.34
2022-12-31T04:09:21.390Z,100019.69
2022-12-31T04:11:49.389Z,100018.69
2022-12-31T04:14:17.748Z,100007.53
2022-12-31T04:16:45.835Z,100008.53
2022-12-31T04:19:14.111Z,100012.19
2022-12-31T04:21:42.055Z,100012.97
2022-12-31T04:24:10.044Z,100004.38
2022-12-31T04:26:39.668Z,100028.91
2022-12-31T04:29:07.768Z,100015.84
2022-12-31T04:31:35.595Z,100017.31
2022-12-31T04:34:03.394Z,100028.78
2022-12-31T04:36:31.132Z,100034.19
2022-12-31T04:38:58.873Z,100039.56
2022-12-31T04:41:27.188Z,100042.34
2022-12-31T04:43:58.159Z,100055.28
2022-12-31T04:46:27.308Z,100064.13
2022-12-31T04:48:55.436Z,100075.72
2022-12-31T04:51:23.920Z,100062.78
2022-12-31T04:53:51.943Z,100066.97
2022-12-31T04:56:20.245Z,100075.66
2022-12-31T04:58:48.256Z,100071.47
2022-12-31T05:01:17.430Z,100074.44
2022-12-31T05:03:46.355Z,100080.06
2022-12-31T05:06:16.487Z,100089.53
2022-12-31T05:08:44.383Z,100086.47
2022-12-31T05:11:12.881Z,100080.56
2022-12-31T05:13:40.847Z,100090.81
2022-12-31T05:16:09.218Z,100096.50
2022-12-31T05:18:38.526Z,100085.09
2022-12-31T05:21:07.315Z,100090.22
2022-12-31T05:23:35.101Z,100091.53
2022-12-31T05:26:03.193Z,100092.69
2022-12-31T05:28:32.494Z,100098.06
2022-12-31T05:31:00.652Z,100077.91
2022-12-31T05:33:28.657Z,100083.97
2022-12-31T05:35:58.866Z,100088.06
2022-12-31T05:38:27.018Z,100090.31
2022-12-31T05:41:01.207Z,100093.38
2022-12-31T05:43:29.693Z,100105.38
2022-12-31T05:45:57.628Z,100103.28
2022-12-31T05:48:25.384Z,100092.41
2022-12-31T05:50:53.136Z,100087.53
2022-12-31T05:53:22.255Z,100088.16
2022-12-31T05:55:50.364Z,100101.81
2022-12-31T05:58:18.241Z,100081.19
2022-12-31T06:00:46.259Z,100098.94
2022-12-31T06:03:14.406Z,100093.84
2022-12-31T06:05:43.658Z,100090.78
2022-12-31T06:08:12.472Z,100098.50
2022-12-31T06:10:41.861Z,100115.75
2022-12-31T06:13:09.960Z,100117.88
2022-12-31T06:15:39.045Z,100118.34
2022-12-31T06:18:06.892Z,100111.44
2022-12-31T06:20:34.688Z,100116.16
2022-12-31T06:23:02.425Z,100124.28
2022-12-31T06:25:30.178Z,100128.03
2022-12-31T06:27:59.705Z,100141.78
2022-12-31T06:30:27.550Z,100144.31
2022-12-31T06:32:56.025Z,100141.94
2022-12-31T06:35:23.957Z,100144.88
2022-12-31T06:37:52.888Z,100159.78
2022-12-31T06:40:20.602Z,100175.06
2022-12-31T06:42:48.501Z,100174.06
2022-12-31T06:45:18.122Z,100185.94
2022-12-31T06:47:46.106Z,100192.06
2022-12-31T06:50:14.266Z,100188.50
2022-12-31T06:52:42.317Z,100184.75
2022-12-31T06:55:12.057Z,100191.69
2022-12-31T06:57:40.941Z,100190.28
2022-12-31T07:00:11.127Z,100193.25
2022-12-31T07:03:11.376Z,100191.56
2022-12-31T07:05:46.845Z,100201.47
2022-12-31T07:08:32.331Z,100209.47
2022-12-31T07:11:05.447Z,100216.66
2022-12-31T07:13:51.559Z,100211.53
2022-12-31T07:16:38.492Z,100205.34
2022-12-31T07:19:21.656Z,100205.97
2022-12-31T07:21:52.646Z,100203.38
2022-12-31T07:24:21.167Z,100201.16
2022-12-31T07:27:02.052Z,100212.88
2022-12-31T07:29:42.893Z,100218.84
2022-12-31T07:32:24.460Z,100229.16
2022-12-31T07:35:01.882Z,100240.44
2022-12-31T07:37:37.087Z,100234.44
2022-12-31T07:40:13.538Z,100228.78
2022-12-31T07:42:58.006Z,100234.19
2022-12-31T07:45:31.101Z,100237.19
2022-12-31T07:48:02.690Z,100228.66
2022-12-31T07:50:33.019Z,100236.63
2022-12-31T07:53:01.294Z,100235.59
2022-12-31T07:55:29.361Z,100234.91
2022-12-31T07:58:05.871Z,100251.88
2022-12-31T08:00:34.339Z,100235.47
2022-12-31T08:03:15.837Z,100248.03
2022-12-31T08:05:53.308Z,100252.69
2022-12-31T08:08:33.041Z,100256.09
2022-12-31T08:11:12.044Z,100258.78
2022-12-31T08:13:41.378Z,100244.63
2022-12-31T08:16:11.861Z,100248.34
2022-12-31T08:18:40.750Z,100252.25
2022-12-31T08:21:18.451Z,100265.44
2022-12-31T08:23:55.723Z,100257.38
2022-12-31T08:26:36.064Z,100262.66
2022-12-31T08:29:18.926Z,100261.69
2022-12-31T08:31:54.868Z,100261.56
2022-12-31T08:34:32.228Z,100260.06
2022-12-31T08:37:08.382Z,100265.44
2022-12-31T08:39:53.076Z,100272.25
2022-12-31T08:42:26.585Z,100277.81
2022-12-31T08:45:04.714Z,100274.09
2022-12-31T08:47:42.206Z,100283.03
2022-12-31T08:50:15.917Z,100292.94
2022-12-31T08:52:45.758Z,100286.66
2022-12-31T08:55:16.358Z,100291.84
2022-12-31T08:57:52.644Z,100288.31
2022-12-31T09:00:22.125Z,100299.63
2022-12-31T09:03:01.995Z,100287.13
2022-12-31T09:05:36.130Z,100284.81
2022-12-31T09:08:17.696Z,100294.34
2022-12-31T09:10:51.025Z,100294.84
2022-12-31T09:13:29.570Z,100291.41
2022-12-31T09:16:04.507Z,100308.81
2022-12-31T09:18:41.988Z,100311.09
2022-12-31T09:21:11.721Z,100302.47
2022-12-31T09:23:41.981Z,100310.13
2022-12-31T09:26:22.101Z,100313.84
2022-12-31T09:29:02.518Z,100311.91
2022-12-31T09:31:37.223Z,100321.59
2022-12-31T09:34:09.005Z,100324.97
2022-12-31T09:36:42.500Z,100336.06
2022-12-31T09:39:17.354Z,100343.75
2022-12-31T09:42:25.312Z,100355.91
2022-12-31T09:45:26.402Z,100360.97
2022-12-31T09:48:26.970Z,100356.50
2022-12-31T09:51:04.460Z,100367.88
2022-12-31T09:53:57.432Z,100351.47
2022-12-31T09:56:30.205Z,100370.72
2022-12-31T09:59:03.975Z,100382.09
2022-12-31T10:01:43.584Z,100378.66
2022-12-31T10:04:40.842Z,100402.88
2022-12-31T10:07:25.222Z,100399.72
2022-12-31T10:10:04.165Z,100395.94
2022-12-31T10:13:03.117Z,100390.56
2022-12-31T10:15:57.265Z,100405.63
2022-12-31T10:18:55.417Z,100409.03
2022-12-31T10:21:37.977Z,100408.06
2022-12-31T10:24:41.141Z,100395.38
2022-12-31T10:27:44.745Z,100392.88
2022-12-31T10:30:18.781Z,100390.97
2022-12-31T10:33:00.533Z,100393.44
2022-12-31T10:35:33.269Z,100399.84
2022-12-31T10:38:16.151Z,100390.91
2022-12-31T10:41:20.033Z,100394.16
2022-12-31T10:44:25.364Z,100388.09
2022-12-31T10:47:28.899Z,100396.78
2022-12-31T10:50:28.884Z,100381.97
2022-12-31T10:53:22.648Z,100390.66
2022-12-31T10:56:26.987Z,100405.75
2022-12-31T10:59:24.401Z,100403.97
2022-12-31T11:02:06.244Z,100399.22
2022-12-31T11:04:58.339Z,100408.84
2022-12-31T11:07:54.548Z,100408.47
2022-12-31T11:10:40.828Z,100420.97
2022-12-31T11:13:44.203Z,100424.50
2022-12-31T11:16:27.444Z,100426.44
2022-12-31T11:19:02.991Z,100423.78
2022-12-31T11:22:00.233Z,100438.47
2022-12-31T11:24:39.916Z,100428.16
2022-12-31T11:27:23.572Z,100426.13
2022-12-31T11:30:05.674Z,100433.19
2022-12-31T11:32:50.734Z,100431.56
2022-12-31T11:35:29.415Z,100426.13
2022-12-31T11:38:15.248Z,100416.72
2022-12-31T11:40:54.028Z,100419.19
2022-12-31T11:43:35.516Z,100415.69
2022-12-31T11:46:49.998Z,100401.88
2022-12-31T11:49:35.743Z,100403.50
2022-12-31T11:52:27.157Z,100398.22
2022-12-31T11:55:13.748Z,100397.59
2022-12-31T11:57:49.687Z,100398.66
2022-12-31T12:00:20.460Z,100387.78
2022-12-31T12:02:51.020Z,100404.56
2022-12-31T12:05:22.601Z,100389.66
2022-12-31T12:07:50.786Z,100386.47
2022-12-31T12:10:31.780Z,100397.91
2022-12-31T12:13:12.637Z,100389.19
2022-12-31T12:15:50.060Z,100382.97
2022-12-31T12:18:30.056Z,100380.31
2022-12-31T12:21:09.367Z,100373.31
2022-12-31T12:23:37.596Z,100382.06
2022-12-31T12:26:07.391Z,100380.88
2022-12-31T12:28:45.073Z,100386.94
2022-12-31T12:31:21.358Z,100386.94
2022-12-31T12:33:51.447Z,100390.44
2022-12-31T12:36:20.785Z,100385.59
2022-12-31T12:38:48.994Z,100364.41
2022-12-31T12:41:26.293Z,100359.66
2022-12-31T12:44:04.994Z,100356.06
2022-12-31T12:46:35.227Z,100369.38
2022-12-31T12:49:04.351Z,100386.09
2022-12-31T12:51:44.417Z,100380.81
2022-12-31T12:54:26.823Z,100383.13
2022-12-31T12:57:03.573Z,100389.28
2022-12-31T12:59:57.155Z,100416.56
2022-12-31T13:03:02.901Z,100410.91
2022-12-31T13:05:43.822Z,100412.47
2022-12-31T13:08:27.843Z,100417.91
2022-12-31T13:11:18.739Z,100418.38
2022-12-31T13:13:55.780Z,100425.50
2022-12-31T13:16:33.486Z,100430.03
2022-12-31T13:19:10.259Z,100411.28
2022-12-31T13:21:46.334Z,100420.41
2022-12-31T13:24:30.335Z,100416.19
2022-12-31T13:27:05.442Z,100424.25
2022-12-31T13:29:36.721Z,100430.50
2022-12-31T13:32:08.891Z,100438.56
2022-12-31T13:34:41.138Z,100439.53
2022-12-31T13:37:25.554Z,100432.22
2022-12-31T13:40:00.689Z,100425.06
2022-12-31T13:42:35.966Z,100429.28
2022-12-31T13:45:12.815Z,100427.66
2022-12-31T13:47:46.292Z,100430.34
2022-12-31T13:50:20.817Z,100425.16
2022-12-31T13:52:54.143Z,100417.00
2022-12-31T13:55:26.054Z,100422.38
2022-12-31T13:57:58.677Z,100413.53
2022-12-31T14:00:34.658Z,100423.16
2022-12-31T14:03:12.463Z,100421.84
2022-12-31T14:05:48.220Z,100415.78
2022-12-31T14:08:16.828Z,100411.00
2022-12-31T14:10:55.781Z,100405.72
2022-12-31T14:13:35.345Z,100401.41
2022-12-31T14:16:19.999Z,100405.16
2022-12-31T14:18:57.155Z,100414.06
2022-12-31T14:21:29.948Z,100406.78
2022-12-31T14:24:06.711Z,100410.22
2022-12-31T14:26:40.065Z,100414.63
2022-12-31T14:29:19.899Z,100403.09
2022-12-31T14:32:14.911Z,100403.13
2022-12-31T14:34:51.817Z,100389.22
2022-12-31T14:37:30.010Z,100397.84
2022-12-31T14:40:07.310Z,100388.22
2022-12-31T14:42:43.697Z,100388.59
2022-12-31T14:45:29.210Z,100390.16
2022-12-31T14:48:05.758Z,100374.44
2022-12-31T14:50:34.702Z,100382.50
2022-12-31T14:53:09.572Z,100386.03
2022-12-31T14:55:39.315Z,100386.41
2022-12-31T14:58:28.168Z,100386.31
2022-12-31T15:00:58.144Z,100399.03
2022-12-31T15:03:37.910Z,100411.44
2022-12-31T15:06:42.418Z,100400.38
2022-12-31T15:09:20.686Z,100397.97
2022-12-31T15:12:06.058Z,100403.31
2022-12-31T15:14:55.487Z,100410.50
2022-12-31T15:17:31.350Z,100426.56
2022-12-31T15:20:26.073Z,100408.94
2022-12-31T15:22:55.496Z,100404.03
2022-12-31T15:25:33.859Z,100414.16
2022-12-31T15:28:06.750Z,100423.06
2022-12-31T15:30:39.082Z,100431.84
2022-12-31T15:33:11.010Z,100425.78
2022-12-31T15:35:51.374Z,100439.06
2022-12-31T15:38:34.597Z,100432.28
2022-12-31T15:41:14.422Z,100433.91
2022-12-31T15:43:47.927Z,100438.34
2022-12-31T15:46:18.278Z,100451.59
2022-12-31T15:48:52.651Z,100447.25
2022-12-31T15:51:28.849Z,100447.44
2022-12-31T15:54:00.634Z,100446.44
2022-12-31T15:56:34.705Z,100444.09
2022-12-31T15:59:06.400Z,100442.16
2022-12-31T16:01:37.257Z,100434.25
2022-12-31T16:04:08.691Z,100440.53
2022-12-31T16:06:38.855Z,100439.81
2022-12-31T16:09:09.761Z,100443.38
2022-12-31T16:11:40.561Z,100440.72
2022-12-31T16:14:08.619Z,100442.81
2022-12-31T16:16:36.345Z,100426.19
2022-12-31T16:19:04.359Z,100442.91
2022-12-31T16:21:34.046Z,100443.00
2022-12-31T16:24:07.351Z,100443.16
2022-12-31T16:26:45.476Z,100449.41
2022-12-31T16:29:15.864Z,100448.81
2022-12-31T16:31:44.325Z,100452.38
2022-12-31T16:34:16.180Z,100450.88
2022-12-31T16:36:54.976Z,100457.88
2022-12-31T16:39:27.941Z,100456.19
2022-12-31T16:42:10.462Z,100446.59
2022-12-31T16:44:38.260Z,100453.56
2022-12-31T16:47:08.261Z,100454.56
2022-12-31T16:49:39.892Z,100459.69
2022-12-31T16:52:16.622Z,100454.66
2022-12-31T16:54:48.332Z,100460.06
2022-12-31T16:57:22.347Z,100457.31
2022-12-31T16:59:55.748Z,100468.75
2022-12-31T17:02:28.259Z,100468.88
2022-12-31T17:04:56.705Z,100459.25
2022-12-31T17:07:43.021Z,100452.91
2022-12-31T17:10:21.026Z,100459.06
2022-12-31T17:13:26.839Z,100464.50
2022-12-31T17:15:43.945Z,100471.72
2022-12-31T17:18:18.945Z,100457.81
2022-12-31T17:20:47.802Z,100462.34
2022-12-31T17:23:24.571Z,100462.28
2022-12-31T17:26:00.776Z,100459.78
2022-12-31T17:28:33.714Z,100464.19
2022-12-31T17:31:03.090Z,100454.50
2022-12-31T17:33:32.401Z,100460.72
2022-12-31T17:36:22.623Z,100454.19
2022-12-31T17:38:51.172Z,100455.22
2022-12-31T17:41:27.191Z,100457.88
2022-12-31T17:43:56.775Z,100441.03
2022-12-31T17:46:26.153Z,100432.34
2022-12-31T17:48:58.522Z,100425.50
2022-12-31T17:51:26.274Z,100434.34
2022-12-31T17:53:54.010Z,100415.94
2022-12-31T17:56:21.876Z,100418.84
2022-12-31T17:58:52.711Z,100410.25
2022-12-31T18:01:22.407Z,100420.13
2022-12-31T18:03:50.453Z,100422.09
2022-12-31T18:06:19.499Z,100429.22
2022-12-31T18:08:47.775Z,100420.25
2022-12-31T18:11:18.107Z,100419.53
2022-12-31T18:13:46.801Z,100412.56
2022-12-31T18:16:16.971Z,100417.34
2022-12-31T18:18:45.357Z,100415.72
2022-12-31T18:21:18.919Z,100412.47
2022-12-31T18:23:48.953Z,100410.69
2022-12-31T18:26:18.280Z,100415.09
2022-12-31T18:28:46.415Z,100412.53
2022-12-31T18:31:18.232Z,100422.16
2022-12-31T18:33:47.136Z,100423.78
2022-12-31T18:36:18.379Z,100418.91
2022-12-31T18:38:46.330Z,100425.16
2022-12-31T18:41:18.690Z,100424.78
2022-12-31T18:43:46.975Z,100425.09
2022-12-31T18:46:18.255Z,100417.06
2022-12-31T18:48:46.464Z,100431.22
2022-12-31T18:51:15.293Z,100436.44
2022-12-31T18:53:43.321Z,100442.41
2022-12-31T18:56:13.662Z,100434.84
2022-12-31T18:58:42.402Z,100433.13
2022-12-31T19:01:25.749Z,100435.88
2022-12-31T19:03:53.919Z,100435.94
2022-12-31T19:06:21.674Z,100431.53
2022-12-31T19:08:49.752Z,100432.38
2022-12-31T19:11:17.940Z,100426.03
2022-12-31T19:13:46.199Z,100425.28
2022-12-31T19:16:14.350Z,100416.66
2022-12-31T19:18:43.699Z,100418.28
2022-12-31T19:21:19.385Z,100420.06
2022-12-31T19:23:47.202Z,100405.88
2022-12-31T19:26:19.661Z,100410.25
2022-12-31T19:28:48.639Z,100408.41
2022-12-31T19:31:16.775Z,100417.25
2022-12-31T19:33:46.175Z,100404.94
2022-12-31T19:36:16.484Z,100404.22
2022-12-31T19:38:45.086Z,100423.75
2022-12-31T19:41:16.985Z,100423.06
2022-12-31T19:43:44.747Z,100417.91
2022-12-31T19:46:14.486Z,100420.69
2022-12-31T19:48:42.514Z,100424.22
2022-12-31T19:51:16.015Z,100433.72
2022-12-31T19:53:43.993Z,100422.28
2022-12-31T19:56:14.032Z,100437.09
2022-12-31T19:58:41.840Z,100432.72
2022-12-31T20:01:18.218Z,100435.50
2022-12-31T20:03:45.987Z,100432.47
2022-12-31T20:06:15.791Z,100426.56
2022-12-31T20:08:44.296Z,100437.94
2022-12-31T20:11:13.747Z,100444.69
2022-12-31T20:13:42.825Z,100450.66
2022-12-31T20:16:12.866Z,100467.72
2022-12-31T20:18:41.706Z,100461.06
2022-12-31T20:21:11.197Z,100470.19
2022-12-31T20:23:40.366Z,100472.88
2022-12-31T20:26:08.203Z,100481.63
2022-12-31T20:28:37.010Z,100491.31
2022-12-31T20:31:06.784Z,100496.44
2022-12-31T20:33:34.779Z,100503.31
2022-12-31T20:36:03.170Z,100510.44
2022-12-31T20:38:30.943Z,100519.00
2022-12-31T20:41:05.458Z,100519.13
2022-12-31T20:43:33.903Z,100530.84
2022-12-31T20:46:12.632Z,100549.13
2022-12-31T20:48:43.033Z,100538.56
2022-12-31T20:51:10.766Z,100541.50
2022-12-31T20:53:38.746Z,100550.25
2022-12-31T20:56:09.440Z,100543.97
2022-12-31T20:58:37.471Z,100543.16
2022-12-31T21:01:07.915Z,100542.44
2022-12-31T21:04:04.153Z,100550.44
2022-12-31T21:06:24.281Z,100534.88
2022-12-31T21:08:52.651Z,100541.94
2022-12-31T21:11:39.270Z,100545.41
2022-12-31T21:14:07.148Z,100537.75
2022-12-31T21:16:35.530Z,100553.53
2022-12-31T21:19:03.431Z,100549.22
2022-12-31T21:21:31.174Z,100551.66
2022-12-31T21:23:58.915Z,100556.06
2022-12-31T21:26:28.098Z,100549.84
2022-12-31T21:28:55.810Z,100554.28
2022-12-31T21:31:23.821Z,100559.50
2022-12-31T21:33:51.593Z,100567.66
2022-12-31T21:36:19.560Z,100560.63
2022-12-31T21:38:47.329Z,100575.44
2022-12-31T21:41:33.328Z,100571.94
2022-12-31T21:44:03.557Z,100576.34
2022-12-31T21:46:31.338Z,100579.84
2022-12-31T21:49:00.586Z,100580.00
2022-12-31T21:51:28.991Z,100578.22
2022-12-31T21:53:56.762Z,100581.84
2022-12-31T21:56:23.862Z,100597.88
2022-12-31T21:59:09.412Z,100593.53
2022-12-31T22:01:56.094Z,100607.03
2022-12-31T22:05:00.463Z,100604.47
2022-12-31T22:07:11.657Z,100605.50
2022-12-31T22:09:39.375Z,100591.25
2022-12-31T22:12:07.625Z,100613.97
2022-12-31T22:14:35.390Z,100612.94
2022-12-31T22:17:04.508Z,100606.47
2022-12-31T22:19:54.547Z,100608.94
2022-12-31T22:22:23.464Z,100599.19
2022-12-31T22:24:51.156Z,100595.88
2022-12-31T22:27:29.457Z,100604.53
2022-12-31T22:29:57.652Z,100596.66
2022-12-31T22:32:27.228Z,100594.22
2022-12-31T22:34:54.961Z,100600.56
2022-12-31T22:37:55.064Z,100614.03
2022-12-31T22:40:11.531Z,100607.75
2022-12-31T22:42:39.769Z,100595.50
2022-12-31T22:45:09.010Z,100600.69
2022-12-31T22:47:38.208Z,100598.78
2022-12-31T22:50:06.932Z,100591.84
2022-12-31T22:52:34.594Z,100601.66
2022-12-31T22:55:02.326Z,100597.53
2022-12-31T22:57:30.072Z,100595.41
2022-12-31T22:59:57.859Z,100595.28
2022-12-31T23:02:25.593Z,100599.66
2022-12-31T23:05:15.777Z,100598.28
2022-12-31T23:07:42.475Z,100608.69
2022-12-31T23:10:29.032Z,100601.31
2022-12-31T23:12:56.848Z,100594.63
2022-12-31T23:15:42.376Z,100599.03
2022-12-31T23:18:27.707Z,100590.16
2022-12-31T23:21:14.439Z,100597.38
2022-12-31T23:23:42.118Z,100600.75
2022-12-31T23:26:10.035Z,100603.44
2022-12-31T23:28:37.714Z,100593.53
2022-12-31T23:31:07.614Z,100595.50
2022-12-31T23:33:35.361Z,100593.72
2022-12-31T23:36:06.680Z,100593.72
2022-12-31T23:38:34.469Z,100596.50
2022-12-31T23:41:02.166Z,100603.75
2022-12-31T23:43:29.870Z,100597.94
2022-12-31T23:45:57.837Z,100597.16
2022-12-31T23:48:25.526Z,100586.88
2022-12-31T23:50:54.493Z,100594.00
2022-12-31T23:53:24.313Z,100592.16
2022-12-31T23:55:52.377Z,100594.03
2022-12-31T23:58:20.988Z,100602.94
